Time;durP1;ratioP1;P1;durP2;ratioP2;P2;SDS_P1;SDS_P2;PMS_P1;PMS_P2;Temp;Humidity;BMP_temperature;BMP_pressure;BME280_temperature;BME280_humidity;BME280_pressure;Samples;Min_cycle;Max_cycle;Signal;HPM_P1;HPM_P2
2022/04/27 00:01:16;;;;;;;8.02;3.80;;;10.50;93.70;;;;;;5041870;28;20025;-76
2022/04/27 00:03:42;;;;;;;8.77;4.38;;;10.40;93.90;;;;;;5038155;28;20036;-78
2022/04/27 00:06:09;;;;;;;7.20;3.70;;;10.40;93.90;;;;;;5038595;28;20039;-72
2022/04/27 00:08:35;;;;;;;8.55;3.28;;;10.40;94.00;;;;;;5038154;28;20021;-72
2022/04/27 00:11:00;;;;;;;5.38;3.30;;;10.30;94.00;;;;;;5056743;28;20044;-71
2022/04/27 00:13:26;;;;;;;13.27;4.07;;;10.30;94.10;;;;;;5037149;28;20774;-71
2022/04/27 00:15:51;;;;;;;7.90;3.60;;;10.30;94.50;;;;;;5054761;28;20037;-72
2022/04/27 00:18:17;;;;;;;10.65;3.72;;;10.30;94.20;;;;;;5031976;28;20048;-75
2022/04/27 00:20:43;;;;;;;6.85;3.40;;;10.20;94.20;;;;;;5056686;28;20097;-72
2022/04/27 00:23:09;;;;;;;7.75;3.60;;;10.20;94.40;;;;;;5038017;28;20495;-76
2022/04/27 00:25:36;;;;;;;9.25;3.95;;;10.10;94.40;;;;;;5038937;28;20098;-71
2022/04/27 00:28:02;;;;;;;9.32;4.28;;;10.10;94.60;;;;;;5037618;28;20029;-72
2022/04/27 00:30:28;;;;;;;11.18;4.68;;;10.10;94.60;;;;;;5036639;28;20104;-72
2022/04/27 00:32:53;;;;;;;8.15;3.78;;;10.00;94.80;;;;;;5052822;28;20120;-72
2022/04/27 00:35:19;;;;;;;8.82;3.78;;;10.00;95.00;;;;;;5059121;28;20070;-72
2022/04/27 00:37:46;;;;;;;9.18;3.90;;;10.00;95.10;;;;;;5039026;28;20085;-75
2022/04/27 00:40:12;;;;;;;7.78;3.78;;;9.90;95.20;;;;;;5038507;28;20481;-77
2022/04/27 00:42:37;;;;;;;8.25;3.95;;;9.90;95.30;;;;;;5057086;28;20098;-75
2022/04/27 00:45:05;;;;;;;8.77;3.50;;;9.80;95.40;;;;;;5054403;28;20024;-78
2022/04/27 00:47:31;;;;;;;11.23;4.88;;;9.80;95.70;;;;;;5056683;28;20119;-80
2022/04/27 00:50:02;;;;;;;8.57;3.45;;;9.70;95.80;;;;;;5038818;28;20200;-78
2022/04/27 00:52:32;;;;;;;8.98;4.05;;;9.70;95.70;;;;;;5053892;28;20029;-80
2022/04/27 00:54:58;;;;;;;8.55;4.07;;;9.70;95.70;;;;;;5038405;28;20078;-77
2022/04/27 00:57:25;;;;;;;9.43;4.45;;;9.70;95.80;;;;;;5055446;28;20025;-75
2022/04/27 00:59:52;;;;;;;9.70;4.05;;;9.60;95.90;;;;;;5037445;28;20028;-77
2022/04/27 01:02:17;;;;;;;8.75;4.10;;;9.60;96.00;;;;;;5037450;28;20029;-75
2022/04/27 01:04:43;;;;;;;9.93;4.38;;;9.60;96.10;;;;;;5021726;28;20545;-75
2022/04/27 01:07:11;;;;;;;10.85;3.95;;;9.70;96.20;;;;;;5040015;28;20032;-77
2022/04/27 01:09:37;;;;;;;10.90;3.85;;;9.70;96.10;;;;;;5038144;28;20028;-75
2022/04/27 01:12:04;;;;;;;10.10;4.40;;;9.60;96.00;;;;;;5037521;28;20067;-75
2022/04/27 01:14:41;;;;;;;13.25;3.88;;;9.60;96.10;;;;;;5057422;28;20060;-76
2022/04/27 01:17:07;;;;;;;8.40;3.50;;;9.60;96.40;;;;;;5037199;28;20540;-76
2022/04/27 01:19:32;;;;;;;6.88;3.72;;;9.50;96.20;;;;;;5053446;28;20071;-79
2022/04/27 01:21:58;;;;;;;6.53;3.88;;;9.50;96.30;;;;;;5035718;28;20079;-77
2022/04/27 01:24:24;;;;;;;8.60;3.88;;;9.50;96.60;;;;;;5059192;28;20031;-75
2022/04/27 01:26:51;;;;;;;11.63;3.72;;;9.40;96.50;;;;;;5053483;28;20040;-77
2022/04/27 01:29:18;;;;;;;8.27;3.30;;;9.40;96.70;;;;;;5021290;28;20028;-77
2022/04/27 01:31:45;;;;;;;5.43;3.40;;;9.40;96.80;;;;;;5054872;28;20020;-75
2022/04/27 01:34:12;;;;;;;8.60;3.90;;;9.40;96.90;;;;;;5057898;28;20032;-74
2022/04/27 01:36:38;;;;;;;7.88;3.70;;;9.40;96.90;;;;;;5016122;28;20029;-74
2022/04/27 01:39:04;;;;;;;6.00;3.85;;;9.30;97.00;;;;;;5037125;28;20016;-77
2022/04/27 01:41:29;;;;;;;7.25;3.90;;;9.30;97.10;;;;;;5035272;28;20409;-74
2022/04/27 01:43:57;;;;;;;10.60;3.83;;;9.30;97.20;;;;;;5056394;28;20036;-76
2022/04/27 01:46:24;;;;;;;7.15;3.67;;;9.20;97.30;;;;;;5034010;28;20036;-75
2022/04/27 01:48:50;;;;;;;9.15;3.90;;;9.20;97.30;;;;;;5037722;28;20147;-74
2022/04/27 01:51:18;;;;;;;10.90;3.88;;;9.20;97.50;;;;;;5053256;28;20064;-73
2022/04/27 01:56:31;;;;;;;7.53;4.07;;;9.20;97.70;;;;;;5057357;28;20043;-74
2022/04/27 01:58:57;;;;;;;8.38;3.20;;;9.30;97.70;;;;;;5048193;28;20577;-75
2022/04/27 02:01:27;;;;;;;9.07;4.00;;;9.20;97.70;;;;;;5052899;28;20107;-77
2022/04/27 02:03:53;;;;;;;8.90;4.10;;;9.10;97.80;;;;;;5019899;28;20028;-78
2022/04/27 02:06:19;;;;;;;6.47;3.05;;;9.10;98.10;;;;;;5033445;28;20028;-75
2022/04/27 02:08:46;;;;;;;6.47;3.55;;;9.10;98.00;;;;;;5039154;28;20028;-77
2022/04/27 02:11:11;;;;;;;5.85;3.42;;;9.10;98.10;;;;;;5052643;28;20578;-74
2022/04/27 02:13:37;;;;;;;4.63;3.70;;;9.10;98.20;;;;;;5032131;28;20132;-75
2022/04/27 02:16:03;;;;;;;6.88;3.45;;;9.10;98.30;;;;;;5038143;28;20024;-77
2022/04/27 02:18:29;;;;;;;8.27;3.70;;;9.10;98.30;;;;;;5052490;28;20242;-77
2022/04/27 02:20:56;;;;;;;8.45;3.63;;;9.00;98.40;;;;;;5035068;28;20031;-74
2022/04/27 02:23:22;;;;;;;8.18;3.22;;;9.00;98.50;;;;;;5037817;28;20043;-74
2022/04/27 02:25:48;;;;;;;9.25;3.75;;;9.00;98.50;;;;;;5021385;28;20127;-73
2022/04/27 02:28:16;;;;;;;7.50;3.63;;;9.00;98.80;;;;;;5052658;28;20053;-73
2022/04/27 02:30:41;;;;;;;9.60;3.42;;;9.00;99.00;;;;;;5034691;28;20151;-75
2022/04/27 02:33:07;;;;;;;7.65;3.67;;;9.00;98.80;;;;;;5036497;28;20112;-76
2022/04/27 02:35:32;;;;;;;8.07;3.47;;;9.00;98.80;;;;;;5035073;28;20108;-75
2022/04/27 02:37:58;;;;;;;8.40;3.42;;;9.00;98.90;;;;;;5054647;28;20025;-77
2022/04/27 02:40:24;;;;;;;9.30;3.45;;;9.00;98.90;;;;;;5050191;28;20116;-75
2022/04/27 02:42:49;;;;;;;9.65;3.55;;;8.80;99.20;;;;;;5055508;28;20526;-75
2022/04/27 02:45:15;;;;;;;7.82;3.25;;;8.80;99.40;;;;;;5053989;28;20052;-76
2022/04/27 02:47:41;;;;;;;7.68;3.25;;;8.80;99.40;;;;;;5034110;28;20396;-77
2022/04/27 02:52:50;;;;;;;9.15;2.88;;;8.80;99.60;;;;;;5053120;28;20021;-75
2022/04/27 02:55:17;;;;;;;11.48;3.75;;;8.70;99.60;;;;;;5037438;28;20043;-77
2022/04/27 02:57:42;;;;;;;9.10;3.33;;;8.70;99.70;;;;;;5038687;28;20423;-75
2022/04/27 03:00:08;;;;;;;7.25;4.03;;;8.70;99.70;;;;;;5041759;28;20036;-74
2022/04/27 03:02:34;;;;;;;8.23;3.22;;;8.70;99.80;;;;;;5057414;28;20068;-75
2022/04/27 03:05:00;;;;;;;7.07;3.78;;;8.70;99.80;;;;;;5055274;28;20488;-79
2022/04/27 03:07:28;;;;;;;8.52;3.45;;;8.70;99.80;;;;;;5039437;28;20037;-75
2022/04/27 03:09:55;;;;;;;6.88;4.00;;;8.80;99.90;;;;;;5039416;28;20021;-78
2022/04/27 03:12:20;;;;;;;6.90;3.22;;;8.70;99.90;;;;;;5042576;28;20107;-74
2022/04/27 03:14:46;;;;;;;9.77;3.60;;;8.80;99.90;;;;;;5039614;28;20113;-74
2022/04/27 03:17:12;;;;;;;7.28;3.53;;;8.70;99.90;;;;;;5037448;28;20029;-74
2022/04/27 03:19:38;;;;;;;9.43;3.38;;;8.70;99.90;;;;;;5036350;28;20086;-76
2022/04/27 03:22:04;;;;;;;8.43;3.70;;;8.60;99.90;;;;;;5020661;28;20064;-76
2022/04/27 03:24:31;;;;;;;8.52;3.70;;;8.60;99.90;;;;;;5042594;28;20060;-75
2022/04/27 03:26:57;;;;;;;6.78;2.75;;;8.60;99.90;;;;;;5041167;28;20029;-77
2022/04/27 03:29:22;;;;;;;8.88;3.85;;;8.60;99.90;;;;;;5040424;28;20075;-75
2022/04/27 03:31:49;;;;;;;10.50;3.72;;;8.60;99.90;;;;;;5035237;28;20139;-76
2022/04/27 03:34:15;;;;;;;8.05;3.40;;;8.60;99.90;;;;;;5038609;28;20029;-72
2022/04/27 03:36:40;;;;;;;10.15;3.63;;;8.60;99.90;;;;;;5053995;28;20147;-72
2022/04/27 03:39:06;;;;;;;10.25;3.83;;;8.60;99.90;;;;;;5022280;28;20051;-72
2022/04/27 03:41:31;;;;;;;4.88;3.22;;;8.60;99.90;;;;;;5053902;28;20021;-72
2022/04/27 03:43:57;;;;;;;7.20;4.07;;;8.60;99.90;;;;;;5033592;28;20039;-72
2022/04/27 03:46:23;;;;;;;8.20;3.72;;;8.60;99.90;;;;;;5038706;28;20037;-72
2022/04/27 03:48:48;;;;;;;8.80;3.80;;;8.60;99.90;;;;;;5056979;28;20021;-72
2022/04/27 03:51:14;;;;;;;5.60;3.30;;;8.50;99.90;;;;;;5053645;28;20060;-72
2022/04/27 03:53:40;;;;;;;7.22;3.53;;;8.50;99.90;;;;;;5055863;28;20139;-72
2022/04/27 03:56:06;;;;;;;7.55;3.95;;;8.50;99.90;;;;;;5039897;28;20040;-72
2022/04/27 03:58:32;;;;;;;7.45;3.38;;;8.50;99.90;;;;;;5055210;28;20029;-71
2022/04/27 04:00:58;;;;;;;7.90;3.53;;;8.50;99.90;;;;;;5050284;28;20031;-72
2022/04/27 04:03:24;;;;;;;10.50;4.20;;;8.50;99.90;;;;;;5037981;28;20037;-72
2022/04/27 04:05:50;;;;;;;8.70;3.70;;;8.50;99.90;;;;;;5053932;28;20083;-71
2022/04/27 04:08:16;;;;;;;6.55;3.35;;;8.50;99.90;;;;;;5039385;28;20112;-72
2022/04/27 04:10:41;;;;;;;8.50;3.53;;;8.40;99.90;;;;;;5052519;28;20508;-72
2022/04/27 04:13:07;;;;;;;9.88;4.15;;;8.40;99.90;;;;;;5035352;28;20052;-72
2022/04/27 04:15:37;;;;;;;10.10;4.28;;;8.40;99.90;;;;;;5035105;28;20479;-72
2022/04/27 04:18:03;;;;;;;7.50;3.80;;;8.40;99.90;;;;;;5019219;28;20021;-72
2022/04/27 04:20:29;;;;;;;6.50;3.95;;;8.50;99.90;;;;;;5055672;28;20024;-72
2022/04/27 04:22:55;;;;;;;7.95;3.60;;;8.50;99.90;;;;;;5032794;28;20042;-72
2022/04/27 04:30:52;;;;;;;13.52;4.60;;;8.40;99.90;;;;;;5054056;28;20017;-72
2022/04/27 04:33:18;;;;;;;9.73;4.18;;;8.50;99.90;;;;;;5036394;28;20040;-72
2022/04/27 04:35:44;;;;;;;11.60;4.40;;;8.60;99.90;;;;;;5054577;28;20894;-72
2022/04/27 04:38:10;;;;;;;7.72;4.10;;;8.60;99.90;;;;;;5047111;28;20032;-70
2022/04/27 04:40:35;;;;;;;9.40;3.50;;;8.60;99.90;;;;;;5032597;28;20029;-72
2022/04/27 04:43:01;;;;;;;10.45;4.00;;;8.70;99.90;;;;;;5050407;28;20037;-71
2022/04/27 04:45:27;;;;;;;5.75;3.60;;;8.70;99.90;;;;;;5053697;28;20036;-71
2022/04/27 04:47:53;;;;;;;12.25;4.13;;;8.80;99.90;;;;;;5055233;28;20021;-72
2022/04/27 04:50:18;;;;;;;11.60;4.20;;;8.70;99.90;;;;;;5038142;28;20082;-71
2022/04/27 04:52:46;;;;;;;10.15;4.30;;;8.70;99.90;;;;;;5032048;28;20036;-72
2022/04/27 04:55:12;;;;;;;9.23;3.72;;;8.70;99.90;;;;;;5036051;28;20033;-71
2022/04/27 04:57:38;;;;;;;8.05;3.63;;;8.70;99.90;;;;;;5053653;28;20025;-70
2022/04/27 05:00:05;;;;;;;8.88;4.22;;;8.70;99.90;;;;;;5034997;28;20318;-71
2022/04/27 05:02:31;;;;;;;11.15;4.95;;;8.70;99.90;;;;;;5045248;28;20033;-71
2022/04/27 05:04:58;;;;;;;12.52;3.70;;;8.80;99.90;;;;;;5050401;28;20059;-71
2022/04/27 05:07:24;;;;;;;8.02;3.95;;;8.80;99.90;;;;;;5048299;28;20194;-71
2022/04/27 05:09:50;;;;;;;8.13;4.15;;;8.80;99.90;;;;;;5048392;28;20084;-71
2022/04/27 05:12:15;;;;;;;8.70;3.38;;;8.80;99.90;;;;;;5036174;28;20041;-72
2022/04/27 05:14:41;;;;;;;6.63;3.97;;;8.80;99.90;;;;;;5017175;28;20035;-72
2022/04/27 05:17:07;;;;;;;10.00;4.25;;;8.90;99.90;;;;;;5034949;28;20111;-72
2022/04/27 05:19:33;;;;;;;12.00;4.05;;;9.00;99.90;;;;;;5057807;28;20064;-71
2022/04/27 05:21:58;;;;;;;11.25;4.80;;;9.00;99.90;;;;;;5019489;28;20039;-71
2022/04/27 05:24:24;;;;;;;9.32;3.83;;;9.10;99.90;;;;;;5050487;28;20087;-72
2022/04/27 05:26:49;;;;;;;11.45;4.10;;;9.00;99.90;;;;;;5054574;28;20116;-71
2022/04/27 05:32:00;;;;;;;10.63;4.22;;;9.00;99.90;;;;;;5049185;28;20469;-73
2022/04/27 05:34:30;;;;;;;7.75;3.65;;;9.10;99.90;;;;;;5050832;28;20036;-70
2022/04/27 05:36:59;;;;;;;7.38;3.70;;;9.10;99.90;;;;;;5033027;28;20080;-70
2022/04/27 05:39:24;;;;;;;7.72;3.40;;;9.30;99.90;;;;;;5049392;28;20112;-72
2022/04/27 05:41:52;;;;;;;6.07;3.40;;;9.80;99.90;;;;;;5035013;28;20111;-72
2022/04/27 05:44:21;;;;;;;6.93;3.90;;;9.90;99.90;;;;;;5050321;28;20033;-73
2022/04/27 05:46:47;;;;;;;8.98;3.80;;;10.00;99.60;;;;;;5034651;28;20033;-72
2022/04/27 05:49:12;;;;;;;9.82;3.83;;;10.00;99.70;;;;;;5018357;28;20064;-71
2022/04/27 05:51:38;;;;;;;7.40;3.97;;;10.00;99.40;;;;;;5035606;28;20043;-73
2022/04/27 05:54:04;;;;;;;6.88;3.97;;;10.00;99.40;;;;;;5031168;28;20037;-72
2022/04/27 05:56:30;;;;;;;10.63;4.47;;;10.00;99.20;;;;;;5054371;28;20033;-74
2022/04/27 05:58:55;;;;;;;9.60;4.07;;;10.00;99.20;;;;;;5021836;28;20056;-72
2022/04/27 06:01:21;;;;;;;9.90;4.22;;;10.00;99.20;;;;;;5051197;28;20139;-72
2022/04/27 06:03:47;;;;;;;10.57;4.28;;;10.00;99.20;;;;;;5030224;28;20033;-72
2022/04/27 06:06:12;;;;;;;9.05;4.22;;;10.00;99.10;;;;;;5054355;28;20115;-74
2022/04/27 06:08:40;;;;;;;12.27;4.13;;;10.00;99.20;;;;;;5052526;28;20039;-75
2022/04/27 06:11:08;;;;;;;12.38;4.60;;;10.00;99.30;;;;;;5049994;28;20054;-77
2022/04/27 06:13:33;;;;;;;10.55;4.70;;;10.00;99.20;;;;;;5035037;28;20051;-78
2022/04/27 06:16:00;;;;;;;12.25;4.00;;;10.00;99.10;;;;;;5013058;28;20500;-76
2022/04/27 06:18:27;;;;;;;6.97;3.40;;;10.00;99.00;;;;;;5019433;28;20033;-76
2022/04/27 06:20:56;;;;;;;11.18;3.72;;;10.10;99.10;;;;;;5041043;28;20078;-76
2022/04/27 06:23:23;;;;;;;9.20;3.85;;;10.20;98.90;;;;;;5052611;28;20036;-78
2022/04/27 06:25:49;;;;;;;10.65;3.83;;;10.30;98.70;;;;;;5017853;28;20021;-74
2022/04/27 06:28:17;;;;;;;7.60;3.20;;;10.30;98.60;;;;;;5055626;28;20071;-76
2022/04/27 06:30:42;;;;;;;8.27;3.60;;;10.30;98.50;;;;;;5034128;28;20507;-76
2022/04/27 06:33:08;;;;;;;8.30;3.40;;;10.30;98.50;;;;;;5033034;28;20093;-79
2022/04/27 06:35:34;;;;;;;7.45;3.53;;;10.30;98.60;;;;;;5053130;28;20029;-73
2022/04/27 06:38:00;;;;;;;10.73;3.47;;;10.40;98.60;;;;;;5027364;28;20033;-73
2022/04/27 06:40:26;;;;;;;7.65;3.60;;;10.40;98.50;;;;;;5031164;28;20599;-73
2022/04/27 06:42:56;;;;;;;9.18;3.90;;;10.50;98.30;;;;;;5034516;28;20877;-73
2022/04/27 06:45:24;;;;;;;9.35;3.72;;;10.50;98.20;;;;;;5036220;28;20128;-73
2022/04/27 06:47:49;;;;;;;6.03;2.80;;;10.60;98.10;;;;;;5031405;28;20063;-73
2022/04/27 06:50:16;;;;;;;8.27;2.90;;;10.60;98.00;;;;;;5018394;28;20060;-73
2022/04/27 06:52:48;;;;;;;6.55;2.75;;;10.60;97.90;;;;;;5047628;28;20029;-77
2022/04/27 06:55:17;;;;;;;7.78;3.13;;;10.60;97.80;;;;;;5050249;28;20044;-75
2022/04/27 06:57:43;;;;;;;6.55;2.90;;;10.70;97.90;;;;;;5028070;28;20035;-73
2022/04/27 07:00:10;;;;;;;6.03;3.03;;;10.70;97.80;;;;;;5051979;28;20033;-73
2022/04/27 07:02:36;;;;;;;9.02;2.92;;;10.80;97.60;;;;;;5046396;28;20048;-73
2022/04/27 07:05:04;;;;;;;10.13;3.58;;;10.80;97.30;;;;;;5051512;28;20055;-72
2022/04/27 07:07:30;;;;;;;7.15;3.20;;;10.90;97.10;;;;;;5046448;28;20048;-71
2022/04/27 07:09:56;;;;;;;7.45;2.88;;;10.90;97.20;;;;;;5030340;28;20937;-72
2022/04/27 07:12:22;;;;;;;5.10;2.63;;;10.90;97.10;;;;;;5023763;28;20415;-77
2022/04/27 07:14:48;;;;;;;8.45;3.00;;;10.90;97.20;;;;;;5048191;28;20054;-75
2022/04/27 07:17:15;;;;;;;5.40;2.78;;;10.80;97.20;;;;;;5034094;28;20036;-73
2022/04/27 07:19:41;;;;;;;6.90;3.05;;;10.80;97.30;;;;;;5050909;28;20021;-73
2022/04/27 07:22:07;;;;;;;9.32;3.03;;;10.90;97.30;;;;;;5046561;28;20031;-74
2022/04/27 07:24:33;;;;;;;7.60;2.38;;;11.00;97.10;;;;;;5035201;28;20136;-75
2022/04/27 07:27:00;;;;;;;7.53;2.88;;;11.00;97.10;;;;;;5032702;28;20107;-74
2022/04/27 07:29:27;;;;;;;6.70;3.00;;;11.00;96.90;;;;;;5048722;28;20024;-79
2022/04/27 07:31:52;;;;;;;9.23;3.45;;;11.00;97.00;;;;;;5031701;28;20024;-73
2022/04/27 07:34:18;;;;;;;9.70;3.55;;;11.10;96.90;;;;;;5047761;28;20481;-72
2022/04/27 07:36:44;;;;;;;12.38;2.97;;;11.20;96.90;;;;;;5031892;28;20041;-73
2022/04/27 07:39:10;;;;;;;8.27;2.60;;;11.20;96.80;;;;;;5051985;28;20037;-76
2022/04/27 07:41:36;;;;;;;5.82;3.10;;;11.30;96.40;;;;;;5055574;28;20094;-73
2022/04/27 07:44:02;;;;;;;7.40;3.15;;;11.30;96.30;;;;;;5055557;28;20085;-71
2022/04/27 07:46:28;;;;;;;5.70;3.03;;;11.30;95.80;;;;;;5051392;28;20040;-72
2022/04/27 07:48:54;;;;;;;7.60;2.85;;;11.30;95.90;;;;;;5036221;28;20048;-78
2022/04/27 07:51:21;;;;;;;6.00;2.97;;;11.30;95.90;;;;;;5055622;28;20029;-73
2022/04/27 07:53:49;;;;;;;4.75;2.90;;;11.50;95.90;;;;;;5054349;28;20038;-76
2022/04/27 07:56:15;;;;;;;6.45;2.63;;;11.40;95.80;;;;;;5039453;28;20029;-73
2022/04/27 07:58:42;;;;;;;7.35;2.72;;;11.50;95.80;;;;;;5055747;28;20040;-75
2022/04/27 08:01:09;;;;;;;7.70;3.03;;;11.60;95.60;;;;;;5050506;28;20451;-76
2022/04/27 08:03:35;;;;;;;9.75;3.35;;;11.60;95.40;;;;;;5048930;28;20032;-73
2022/04/27 08:06:03;;;;;;;6.80;2.78;;;11.70;95.10;;;;;;5034167;28;20382;-76
2022/04/27 08:08:33;;;;;;;8.25;3.00;;;11.70;95.10;;;;;;5053735;28;20044;-78
2022/04/27 08:11:00;;;;;;;10.63;3.47;;;11.80;94.90;;;;;;5053418;28;20032;-74
2022/04/27 08:13:26;;;;;;;7.38;2.95;;;11.80;94.90;;;;;;5055168;28;20036;-76
2022/04/27 08:15:52;;;;;;;10.20;3.42;;;11.90;94.80;;;;;;5050923;28;20033;-75
2022/04/27 08:18:20;;;;;;;5.28;2.90;;;11.80;94.70;;;;;;5031013;28;20029;-76
2022/04/27 08:23:34;;;;;;;9.27;3.35;;;11.80;94.60;;;;;;5058160;28;20033;-75
2022/04/27 08:26:01;;;;;;;10.73;3.15;;;11.80;94.60;;;;;;5016658;28;20033;-73
2022/04/27 08:28:29;;;;;;;7.95;3.33;;;11.80;94.50;;;;;;5019307;28;20025;-77
2022/04/27 08:30:56;;;;;;;7.82;3.78;;;11.70;94.60;;;;;;5018735;28;20037;-72
2022/04/27 08:33:22;;;;;;;4.70;2.90;;;11.70;94.70;;;;;;5036685;28;20029;-75
2022/04/27 08:35:51;;;;;;;6.53;3.20;;;11.60;94.60;;;;;;5035609;28;20025;-75
2022/04/27 08:38:17;;;;;;;9.98;3.08;;;11.60;94.10;;;;;;5038754;28;20040;-77
2022/04/27 08:40:45;;;;;;;6.82;3.20;;;11.60;94.10;;;;;;5038146;28;20029;-75
2022/04/27 08:43:13;;;;;;;9.38;3.35;;;11.60;94.10;;;;;;5038283;28;20514;-78
2022/04/27 08:45:41;;;;;;;10.27;3.90;;;11.60;94.30;;;;;;5034857;28;20036;-75
2022/04/27 08:48:10;;;;;;;9.05;3.80;;;11.60;94.40;;;;;;5042091;28;20134;-75
2022/04/27 08:50:38;;;;;;;7.90;3.50;;;11.70;94.80;;;;;;5037657;28;20021;-76
2022/04/27 08:53:08;;;;;;;5.60;3.38;;;11.80;94.30;;;;;;5038540;28;20021;-76
2022/04/27 08:55:36;;;;;;;7.13;3.70;;;11.80;93.80;;;;;;5037052;28;20103;-73
2022/04/27 08:58:10;;;;;;;7.63;3.50;;;11.90;93.90;;;;;;5038579;28;20029;-73
2022/04/27 09:00:36;;;;;;;7.00;3.58;;;11.90;94.00;;;;;;5015706;28;20839;-72
2022/04/27 09:03:25;;;;;;;5.88;3.83;;;11.90;94.00;;;;;;5051874;28;20154;-72
2022/04/27 09:05:55;;;;;;;8.85;4.00;;;11.90;93.60;;;;;;5036355;28;20040;-73
2022/04/27 09:08:24;;;;;;;5.57;3.20;;;11.90;93.10;;;;;;5050938;28;20131;-73
2022/04/27 09:10:51;;;;;;;7.95;3.30;;;12.00;93.40;;;;;;5040234;28;20051;-72
2022/04/27 09:13:17;;;;;;;5.85;3.33;;;12.10;93.50;;;;;;5055975;28;20473;-73
2022/04/27 09:15:42;;;;;;;11.75;3.92;;;12.10;93.40;;;;;;5017591;28;20067;-73
2022/04/27 09:21:02;;;;;;;7.15;3.92;;;12.20;92.20;;;;;;5030477;28;20087;-72
2022/04/27 09:23:40;;;;;;;7.63;3.55;;;12.20;92.30;;;;;;5028426;28;20519;-73
2022/04/27 09:26:19;;;;;;;5.15;3.45;;;12.40;92.30;;;;;;5053798;28;20457;-71
2022/04/27 09:28:50;;;;;;;6.07;3.50;;;12.60;92.10;;;;;;5053564;28;20028;-73
2022/04/27 09:31:26;;;;;;;10.07;4.22;;;12.80;91.80;;;;;;5018269;28;20124;-73
2022/04/27 09:34:27;;;;;;;5.47;3.28;;;12.90;91.20;;;;;;5032012;28;20020;-74
2022/04/27 09:37:04;;;;;;;8.48;3.13;;;12.70;90.80;;;;;;5052360;28;20110;-73
2022/04/27 09:39:30;;;;;;;7.03;4.00;;;12.60;91.30;;;;;;5036154;28;20033;-73
2022/04/27 09:42:08;;;;;;;7.22;3.55;;;12.60;91.00;;;;;;5033091;28;20039;-73
2022/04/27 09:44:39;;;;;;;6.85;3.72;;;12.70;91.00;;;;;;5051964;28;20020;-73
2022/04/27 09:47:06;;;;;;;10.68;4.00;;;12.90;91.00;;;;;;5037156;28;21745;-73
2022/04/27 09:49:36;;;;;;;9.43;4.15;;;13.10;91.00;;;;;;5040616;28;20049;-73
2022/04/27 09:52:05;;;;;;;7.60;4.30;;;13.40;89.00;;;;;;5033555;28;20036;-73
2022/04/27 09:54:34;;;;;;;7.28;4.13;;;13.40;89.30;;;;;;5051754;28;20021;-73
2022/04/27 09:57:05;;;;;;;8.23;3.58;;;13.40;88.80;;;;;;5056568;28;20121;-73
2022/04/27 09:59:35;;;;;;;7.05;3.42;;;13.40;89.30;;;;;;5053629;28;20310;-73
2022/04/27 10:02:08;;;;;;;8.70;3.35;;;13.50;89.80;;;;;;5051031;28;20025;-74
2022/04/27 10:04:34;;;;;;;6.53;3.65;;;13.60;88.90;;;;;;5054798;28;20024;-73
2022/04/27 10:07:07;;;;;;;5.75;3.30;;;13.80;87.90;;;;;;5031576;28;20060;-73
2022/04/27 10:09:33;;;;;;;5.53;3.15;;;14.00;88.00;;;;;;5036731;28;20021;-73
2022/04/27 10:12:03;;;;;;;5.85;3.10;;;14.00;86.40;;;;;;5052129;28;20554;-73
2022/04/27 10:14:29;;;;;;;7.13;3.58;;;14.00;86.30;;;;;;5019296;28;20083;-73
2022/04/27 10:16:56;;;;;;;8.25;3.85;;;14.10;85.40;;;;;;5051446;28;20512;-73
2022/04/27 10:19:23;;;;;;;4.50;3.20;;;14.20;84.50;;;;;;5053745;28;20522;-73
2022/04/27 10:21:58;;;;;;;5.63;3.13;;;14.20;84.40;;;;;;5053375;28;20099;-74
2022/04/27 10:24:46;;;;;;;6.03;3.78;;;14.50;84.60;;;;;;5038678;28;20033;-73
2022/04/27 10:27:20;;;;;;;6.97;3.40;;;14.70;81.10;;;;;;5035624;28;20033;-73
2022/04/27 10:29:57;;;;;;;6.93;3.47;;;14.50;80.80;;;;;;5018811;28;20017;-72
2022/04/27 10:32:45;;;;;;;8.00;3.67;;;14.40;80.40;;;;;;5035462;28;20082;-73
2022/04/27 10:35:28;;;;;;;6.20;3.50;;;14.30;79.70;;;;;;5054642;28;20039;-73
2022/04/27 10:37:57;;;;;;;5.70;3.13;;;14.30;80.70;;;;;;5051007;28;20997;-77
2022/04/27 10:40:31;;;;;;;5.85;3.10;;;14.20;80.60;;;;;;5035624;28;20035;-74
2022/04/27 10:43:06;;;;;;;7.78;3.28;;;14.20;80.70;;;;;;5048229;28;20512;-73
2022/04/27 10:45:33;;;;;;;5.13;3.45;;;14.30;80.10;;;;;;5033102;28;20040;-73
2022/04/27 10:48:03;;;;;;;7.82;3.42;;;14.30;77.30;;;;;;5034542;28;20049;-74
2022/04/27 10:50:35;;;;;;;5.68;3.38;;;14.40;76.70;;;;;;5033889;28;20029;-73
2022/04/27 10:53:16;;;;;;;;;;;14.40;75.80;;;;;;5034802;28;20041;-73
2022/04/27 10:55:50;;;;;;;6.50;3.13;;;14.40;74.10;;;;;;5049090;28;19916;-74
2022/04/27 10:58:16;;;;;;;3.10;2.60;;;14.20;73.80;;;;;;5052572;28;20108;-73
2022/04/27 11:01:03;;;;;;;9.63;3.83;;;14.40;74.20;;;;;;5056837;28;20558;-73
2022/04/27 11:03:30;;;;;;;5.70;3.25;;;14.80;72.10;;;;;;5055748;28;20098;-73
2022/04/27 11:06:01;;;;;;;5.40;3.10;;;15.00;72.20;;;;;;5036301;28;20037;-77
2022/04/27 11:08:36;;;;;;;12.85;3.55;;;15.50;71.50;;;;;;5037799;28;20136;-72
2022/04/27 11:11:06;;;;;;;8.80;3.30;;;16.30;67.10;;;;;;5036935;28;20016;-74
2022/04/27 11:13:36;;;;;;;3.83;2.40;;;17.30;64.10;;;;;;5050068;28;20032;-73
2022/04/27 11:16:10;;;;;;;5.07;2.55;;;17.80;62.70;;;;;;5035381;28;20032;-73
2022/04/27 11:18:52;;;;;;;5.30;2.90;;;17.80;63.20;;;;;;5040737;28;20044;-73
2022/04/27 11:21:18;;;;;;;3.08;2.10;;;17.90;59.40;;;;;;5038345;28;20036;-75
2022/04/27 11:23:46;;;;;;;3.65;2.20;;;17.50;60.00;;;;;;5055226;28;20029;-72
2022/04/27 11:26:13;;;;;;;3.47;2.45;;;17.80;60.40;;;;;;5033209;28;20497;-74
2022/04/27 11:28:42;;;;;;;6.93;2.35;;;17.80;58.50;;;;;;5031270;28;20028;-72
2022/04/27 11:31:09;;;;;;;3.22;2.03;;;17.50;59.70;;;;;;5056920;28;20094;-73
2022/04/27 11:33:40;;;;;;;4.07;2.20;;;18.70;61.40;;;;;;5036251;28;20079;-75
2022/04/27 11:36:19;;;;;;;6.35;2.67;;;21.10;56.50;;;;;;5055630;28;20445;-75
2022/04/27 11:38:46;;;;;;;4.55;2.53;;;23.10;51.60;;;;;;5058694;28;20029;-78
2022/04/27 11:41:18;;;;;;;8.85;3.75;;;24.50;45.40;;;;;;5040092;28;20029;-74
2022/04/27 11:43:47;;;;;;;3.55;2.60;;;23.80;43.80;;;;;;5042181;28;20094;-79
2022/04/27 11:46:13;;;;;;;5.43;2.63;;;22.30;46.40;;;;;;5035482;28;20036;-73
2022/04/27 11:48:39;;;;;;;3.88;2.50;;;21.00;47.30;;;;;;5016562;28;20021;-72
2022/04/27 11:51:06;;;;;;;7.35;2.75;;;19.70;48.40;;;;;;5055729;28;20091;-72
2022/04/27 11:53:49;;;;;;;3.80;2.33;;;19.20;51.20;;;;;;5037306;28;20559;-72
2022/04/27 11:56:16;;;;;;;5.55;3.22;;;18.80;51.80;;;;;;5034346;28;20312;-72
2022/04/27 11:58:45;;;;;;;5.00;2.70;;;18.40;52.40;;;;;;5039271;28;20108;-76
2022/04/27 12:01:21;;;;;;;6.10;2.90;;;18.20;53.10;;;;;;5039475;28;20095;-74
2022/04/27 12:03:51;;;;;;;5.65;3.00;;;18.10;52.70;;;;;;5038855;28;20029;-78
2022/04/27 12:06:21;;;;;;;6.90;3.47;;;17.80;53.60;;;;;;5042758;28;20318;-74
2022/04/27 12:08:52;;;;;;;4.05;2.40;;;17.60;53.50;;;;;;5054687;28;20028;-75
2022/04/27 12:11:22;;;;;;;7.85;3.08;;;17.50;53.40;;;;;;5055665;28;20044;-81
2022/04/27 12:14:02;;;;;;;7.33;2.93;;;17.60;55.70;;;;;;5055358;28;20037;-74
2022/04/27 12:16:30;;;;;;;7.32;3.40;;;18.50;54.60;;;;;;5037396;28;20036;-74
2022/04/27 12:18:55;;;;;;;4.97;2.20;;;19.50;51.10;;;;;;5041762;28;20812;-77
2022/04/27 12:21:28;;;;;;;8.02;2.58;;;20.40;51.10;;;;;;5060899;28;20043;-80
2022/04/27 12:23:56;;;;;;;6.35;3.05;;;21.30;50.80;;;;;;5041734;28;20116;-77
2022/04/27 12:26:25;;;;;;;4.70;3.30;;;22.00;46.50;;;;;;5042317;28;20029;-75
2022/04/27 12:28:53;;;;;;;6.50;2.90;;;22.20;44.40;;;;;;5019962;28;20059;-74
2022/04/27 12:31:25;;;;;;;5.25;2.55;;;22.50;45.40;;;;;;5020517;28;20017;-84
2022/04/27 12:33:51;;;;;;;6.82;3.45;;;23.00;45.90;;;;;;5021475;28;20074;-75
2022/04/27 12:39:24;;;;;;;3.72;2.47;;;24.10;44.10;;;;;;5056560;28;20504;-79
2022/04/27 12:42:04;;;;;;;5.30;2.58;;;25.10;41.70;;;;;;5019796;28;20086;-75
2022/04/27 12:44:41;;;;;;;5.90;2.78;;;26.00;40.70;;;;;;5037532;28;20032;-74
2022/04/27 12:47:11;;;;;;;4.35;2.35;;;26.20;37.40;;;;;;5059251;28;20032;-76
2022/04/27 12:49:37;;;;;;;;;;;26.80;39.50;;;;;;5056327;28;20522;-76
2022/04/27 12:52:36;;;;;;;4.45;2.00;;;27.10;39.20;;;;;;5053548;28;20007;-80
2022/04/27 12:55:08;;;;;;;7.55;2.30;;;28.00;38.40;;;;;;5055858;28;20017;-76
2022/04/27 12:57:50;;;;;;;5.45;2.22;;;28.30;36.80;;;;;;5053437;28;20038;-78
2022/04/27 13:00:18;;;;;;;5.63;2.55;;;28.20;36.80;;;;;;5038911;28;20166;-75
2022/04/27 13:02:44;;;;;;;4.85;2.38;;;28.20;36.70;;;;;;5038155;28;20033;-74
2022/04/27 13:05:11;;;;;;;4.22;2.00;;;28.10;35.40;;;;;;5036622;28;20036;-76
2022/04/27 13:07:37;;;;;;;3.42;2.47;;;28.50;36.50;;;;;;5052279;28;20505;-76
2022/04/27 13:12:49;;;;;;;4.53;2.40;;;27.50;34.30;;;;;;5051299;28;20044;-73
2022/04/27 13:15:17;;;;;;;5.15;2.70;;;26.70;35.80;;;;;;5042261;28;20958;-78
2022/04/27 13:17:43;;;;;;;6.43;2.45;;;26.80;35.30;;;;;;5054402;28;20024;-73
2022/04/27 13:20:09;;;;;;;2.92;2.17;;;26.20;35.90;;;;;;5032747;28;20497;-74